sensor_id;sensor_type;location;lat;lon;timestamp;temperature;humidity
32694;DHT22;19084;44.716;10.218;2022-10-23T00:02:16;16.80;99.90
32694;DHT22;19084;44.716;10.218;2022-10-23T00:04:50;16.80;99.90
32694;DHT22;19084;44.716;10.218;2022-10-23T00:07:23;16.90;99.90
32694;DHT22;19084;44.716;10.218;2022-10-23T00:09:55;16.80;99.90
32694;DHT22;19084;44.716;10.218;2022-10-23T00:12:28;16.80;99.90
32694;DHT22;19084;44.716;10.218;2022-10-23T00:15:01;16.80;99.90
32694;DHT22;19084;44.716;10.218;2022-10-23T00:17:33;16.80;99.90
32694;DHT22;19084;44.716;10.218;2022-10-23T00:20:07;16.70;99.90
32694;DHT22;19084;44.716;10.218;2022-10-23T00:22:40;16.70;99.90
32694;DHT22;19084;44.716;10.218;2022-10-23T00:25:13;16.70;99.90
32694;DHT22;19084;44.716;10.218;2022-10-23T00:27:47;16.70;99.90
32694;DHT22;19084;44.716;10.218;2022-10-23T00:30:20;16.70;99.90
32694;DHT22;19084;44.716;10.218;2022-10-23T00:32:53;16.70;99.90
32694;DHT22;19084;44.716;10.218;2022-10-23T00:35:26;16.70;99.90
32694;DHT22;19084;44.716;10.218;2022-10-23T00:37:58;16.70;99.90
32694;DHT22;19084;44.716;10.218;2022-10-23T00:40:31;16.60;99.90
32694;DHT22;19084;44.716;10.218;2022-10-23T00:43:05;16.60;99.90
32694;DHT22;19084;44.716;10.218;2022-10-23T00:45:38;16.70;99.90
32694;DHT22;19084;44.716;10.218;2022-10-23T00:48:12;16.60;99.90
32694;DHT22;19084;44.716;10.218;2022-10-23T00:50:46;16.60;99.90
32694;DHT22;19084;44.716;10.218;2022-10-23T00:53:20;16.60;99.90
32694;DHT22;19084;44.716;10.218;2022-10-23T00:55:53;16.60;99.90
32694;DHT22;19084;44.716;10.218;2022-10-23T00:58:28;16.50;99.90
32694;DHT22;19084;44.716;10.218;2022-10-23T01:01:01;16.50;99.90
32694;DHT22;19084;44.716;10.218;2022-10-23T01:03:34;16.50;99.90
32694;DHT22;19084;44.716;10.218;2022-10-23T01:08:46;16.50;99.90
32694;DHT22;19084;44.716;10.218;2022-10-23T01:11:41;16.50;99.90
32694;DHT22;19084;44.716;10.218;2022-10-23T01:17:29;16.50;99.90
32694;DHT22;19084;44.716;10.218;2022-10-23T01:26:01;16.50;99.90
32694;DHT22;19084;44.716;10.218;2022-10-23T01:31:25;16.50;99.90
32694;DHT22;19084;44.716;10.218;2022-10-23T01:34:06;16.50;99.90
32694;DHT22;19084;44.716;10.218;2022-10-23T01:36:48;16.50;99.90
32694;DHT22;19084;44.716;10.218;2022-10-23T01:39:28;16.50;99.90
32694;DHT22;19084;44.716;10.218;2022-10-23T01:42:18;16.40;99.90
32694;DHT22;19084;44.716;10.218;2022-10-23T01:45:01;16.40;99.90
32694;DHT22;19084;44.716;10.218;2022-10-23T01:47:44;16.40;99.90
32694;DHT22;19084;44.716;10.218;2022-10-23T01:50:23;16.30;99.90
32694;DHT22;19084;44.716;10.218;2022-10-23T01:53:03;16.30;99.90
32694;DHT22;19084;44.716;10.218;2022-10-23T01:55:37;16.30;99.90
32694;DHT22;19084;44.716;10.218;2022-10-23T01:58:20;16.20;99.90
32694;DHT22;19084;44.716;10.218;2022-10-23T02:00:57;16.20;99.90
32694;DHT22;19084;44.716;10.218;2022-10-23T02:03:32;16.20;99.90
32694;DHT22;19084;44.716;10.218;2022-10-23T02:06:06;16.20;99.90
32694;DHT22;19084;44.716;10.218;2022-10-23T02:08:39;17.30;99.90
32694;DHT22;19084;44.716;10.218;2022-10-23T02:11:14;16.20;99.90
32694;DHT22;19084;44.716;10.218;2022-10-23T02:14:08;16.20;99.90
32694;DHT22;19084;44.716;10.218;2022-10-23T02:16:51;16.20;99.90
32694;DHT22;19084;44.716;10.218;2022-10-23T02:22:16;16.20;99.90
32694;DHT22;19084;44.716;10.218;2022-10-23T02:24:52;16.20;99.90
32694;DHT22;19084;44.716;10.218;2022-10-23T02:27:36;16.30;99.90
32694;DHT22;19084;44.716;10.218;2022-10-23T02:30:15;16.20;99.90
32694;DHT22;19084;44.716;10.218;2022-10-23T02:32:58;16.20;99.90
32694;DHT22;19084;44.716;10.218;2022-10-23T02:35:32;16.20;99.90
32694;DHT22;19084;44.716;10.218;2022-10-23T02:47:09;16.30;99.90
32694;DHT22;19084;44.716;10.218;2022-10-23T02:50:09;16.30;99.90
32694;DHT22;19084;44.716;10.218;2022-10-23T02:56:07;16.30;99.90
32694;DHT22;19084;44.716;10.218;2022-10-23T02:58:50;16.40;99.90
32694;DHT22;19084;44.716;10.218;2022-10-23T03:01:37;16.40;99.90
32694;DHT22;19084;44.716;10.218;2022-10-23T03:04:12;16.40;99.90
32694;DHT22;19084;44.716;10.218;2022-10-23T03:06:49;16.40;99.90
32694;DHT22;19084;44.716;10.218;2022-10-23T03:09:24;16.40;99.90
32694;DHT22;19084;44.716;10.218;2022-10-23T03:11:57;16.40;99.90
32694;DHT22;19084;44.716;10.218;2022-10-23T03:14:30;16.40;99.90
32694;DHT22;19084;44.716;10.218;2022-10-23T03:17:03;16.40;99.90
32694;DHT22;19084;44.716;10.218;2022-10-23T03:19:36;16.40;99.90
32694;DHT22;19084;44.716;10.218;2022-10-23T03:22:09;16.40;99.90
32694;DHT22;19084;44.716;10.218;2022-10-23T03:24:42;16.40;99.90
32694;DHT22;19084;44.716;10.218;2022-10-23T03:27:14;16.40;99.90
32694;DHT22;19084;44.716;10.218;2022-10-23T03:29:47;16.40;99.90
32694;DHT22;19084;44.716;10.218;2022-10-23T03:32:22;16.50;99.90
32694;DHT22;19084;44.716;10.218;2022-10-23T03:34:54;16.50;99.90
32694;DHT22;19084;44.716;10.218;2022-10-23T03:37:27;16.40;99.90
32694;DHT22;19084;44.716;10.218;2022-10-23T03:40:01;16.40;99.90
32694;DHT22;19084;44.716;10.218;2022-10-23T03:42:37;16.40;99.90
32694;DHT22;19084;44.716;10.218;2022-10-23T03:45:09;16.40;99.90
32694;DHT22;19084;44.716;10.218;2022-10-23T03:47:42;16.40;99.90
32694;DHT22;19084;44.716;10.218;2022-10-23T03:50:18;16.40;99.90
32694;DHT22;19084;44.716;10.218;2022-10-23T03:52:53;16.40;99.90
32694;DHT22;19084;44.716;10.218;2022-10-23T03:55:26;16.40;99.90
32694;DHT22;19084;44.716;10.218;2022-10-23T03:57:58;16.30;99.90
32694;DHT22;19084;44.716;10.218;2022-10-23T04:00:31;16.30;99.90
32694;DHT22;19084;44.716;10.218;2022-10-23T04:03:05;16.40;99.90
32694;DHT22;19084;44.716;10.218;2022-10-23T04:05:42;16.40;99.90
32694;DHT22;19084;44.716;10.218;2022-10-23T04:08:14;16.30;99.90
32694;DHT22;19084;44.716;10.218;2022-10-23T04:10:54;16.30;99.90
32694;DHT22;19084;44.716;10.218;2022-10-23T04:13:38;16.30;99.90
32694;DHT22;19084;44.716;10.218;2022-10-23T04:16:11;16.30;99.90
32694;DHT22;19084;44.716;10.218;2022-10-23T04:18:44;16.30;99.90
32694;DHT22;19084;44.716;10.218;2022-10-23T04:21:17;16.30;99.90
32694;DHT22;19084;44.716;10.218;2022-10-23T04:23:50;16.30;99.90
32694;DHT22;19084;44.716;10.218;2022-10-23T04:26:22;16.30;99.90
32694;DHT22;19084;44.716;10.218;2022-10-23T04:28:55;16.30;99.90
32694;DHT22;19084;44.716;10.218;2022-10-23T04:31:28;16.30;99.90
32694;DHT22;19084;44.716;10.218;2022-10-23T04:34:00;16.30;99.90
32694;DHT22;19084;44.716;10.218;2022-10-23T04:36:35;16.30;99.90
32694;DHT22;19084;44.716;10.218;2022-10-23T04:39:13;16.30;99.90
32694;DHT22;19084;44.716;10.218;2022-10-23T04:41:46;16.30;99.90
32694;DHT22;19084;44.716;10.218;2022-10-23T04:44:19;16.30;99.90
32694;DHT22;19084;44.716;10.218;2022-10-23T04:46:52;16.30;99.90
32694;DHT22;19084;44.716;10.218;2022-10-23T04:49:24;16.30;99.90
32694;DHT22;19084;44.716;10.218;2022-10-23T04:52:12;16.30;99.90
32694;DHT22;19084;44.716;10.218;2022-10-23T04:55:06;16.30;99.90
32694;DHT22;19084;44.716;10.218;2022-10-23T04:57:55;16.30;99.90
32694;DHT22;19084;44.716;10.218;2022-10-23T05:00:29;16.30;99.90
32694;DHT22;19084;44.716;10.218;2022-10-23T05:03:02;16.30;99.90
32694;DHT22;19084;44.716;10.218;2022-10-23T05:05:42;16.20;99.90
32694;DHT22;19084;44.716;10.218;2022-10-23T05:08:29;16.20;99.90
32694;DHT22;19084;44.716;10.218;2022-10-23T05:11:16;16.20;99.90
32694;DHT22;19084;44.716;10.218;2022-10-23T05:13:52;16.10;99.90
32694;DHT22;19084;44.716;10.218;2022-10-23T05:16:38;16.10;99.90
32694;DHT22;19084;44.716;10.218;2022-10-23T05:19:21;16.10;99.90
32694;DHT22;19084;44.716;10.218;2022-10-23T05:21:55;16.10;99.90
32694;DHT22;19084;44.716;10.218;2022-10-23T05:24:31;16.10;99.90
32694;DHT22;19084;44.716;10.218;2022-10-23T05:27:06;16.10;99.90
32694;DHT22;19084;44.716;10.218;2022-10-23T05:29:43;16.00;99.90
32694;DHT22;19084;44.716;10.218;2022-10-23T05:32:17;16.00;99.90
32694;DHT22;19084;44.716;10.218;2022-10-23T05:34:49;16.00;99.90
32694;DHT22;19084;44.716;10.218;2022-10-23T05:37:22;16.00;99.90
32694;DHT22;19084;44.716;10.218;2022-10-23T05:40:04;16.10;99.90
32694;DHT22;19084;44.716;10.218;2022-10-23T05:42:39;16.00;99.90
32694;DHT22;19084;44.716;10.218;2022-10-23T05:45:15;16.00;99.90
32694;DHT22;19084;44.716;10.218;2022-10-23T05:48:07;16.00;99.90
32694;DHT22;19084;44.716;10.218;2022-10-23T05:51:10;16.00;99.90
32694;DHT22;19084;44.716;10.218;2022-10-23T05:53:53;15.90;99.90
32694;DHT22;19084;44.716;10.218;2022-10-23T05:56:38;16.00;99.90
32694;DHT22;19084;44.716;10.218;2022-10-23T05:59:24;15.90;99.90
32694;DHT22;19084;44.716;10.218;2022-10-23T06:02:12;15.90;99.90
32694;DHT22;19084;44.716;10.218;2022-10-23T06:04:57;15.90;99.90
32694;DHT22;19084;44.716;10.218;2022-10-23T06:07:45;15.80;99.90
32694;DHT22;19084;44.716;10.218;2022-10-23T06:10:18;15.80;99.90
32694;DHT22;19084;44.716;10.218;2022-10-23T06:12:53;15.80;99.90
32694;DHT22;19084;44.716;10.218;2022-10-23T06:15:26;15.80;99.90
32694;DHT22;19084;44.716;10.218;2022-10-23T06:18:14;15.80;99.90
32694;DHT22;19084;44.716;10.218;2022-10-23T06:20:54;15.80;99.90
32694;DHT22;19084;44.716;10.218;2022-10-23T06:23:34;15.80;99.90
32694;DHT22;19084;44.716;10.218;2022-10-23T06:26:22;15.80;99.90
32694;DHT22;19084;44.716;10.218;2022-10-23T06:29:03;15.80;99.90
32694;DHT22;19084;44.716;10.218;2022-10-23T06:31:36;15.90;99.90
32694;DHT22;19084;44.716;10.218;2022-10-23T06:34:10;15.80;99.90
32694;DHT22;19084;44.716;10.218;2022-10-23T06:36:43;15.80;99.90
32694;DHT22;19084;44.716;10.218;2022-10-23T06:39:32;15.80;99.90
32694;DHT22;19084;44.716;10.218;2022-10-23T06:42:18;15.80;99.90
32694;DHT22;19084;44.716;10.218;2022-10-23T06:44:59;15.90;99.90
32694;DHT22;19084;44.716;10.218;2022-10-23T06:47:53;16.00;99.90
32694;DHT22;19084;44.716;10.218;2022-10-23T06:50:27;16.00;99.90
32694;DHT22;19084;44.716;10.218;2022-10-23T06:53:07;16.00;99.90
32694;DHT22;19084;44.716;10.218;2022-10-23T06:55:45;16.10;99.90
32694;DHT22;19084;44.716;10.218;2022-10-23T06:58:22;16.10;99.90
32694;DHT22;19084;44.716;10.218;2022-10-23T07:01:07;16.10;99.90
32694;DHT22;19084;44.716;10.218;2022-10-23T07:03:40;16.10;99.90
32694;DHT22;19084;44.716;10.218;2022-10-23T07:06:14;16.20;99.90
32694;DHT22;19084;44.716;10.218;2022-10-23T07:08:46;16.20;99.90
32694;DHT22;19084;44.716;10.218;2022-10-23T07:11:39;16.30;99.90
32694;DHT22;19084;44.716;10.218;2022-10-23T07:14:11;16.30;99.90
32694;DHT22;19084;44.716;10.218;2022-10-23T07:16:44;16.30;99.90
32694;DHT22;19084;44.716;10.218;2022-10-23T07:19:17;16.40;99.90
32694;DHT22;19084;44.716;10.218;2022-10-23T07:22:05;16.40;99.90
32694;DHT22;19084;44.716;10.218;2022-10-23T07:24:51;16.40;99.90
32694;DHT22;19084;44.716;10.218;2022-10-23T07:27:29;16.40;99.90
32694;DHT22;19084;44.716;10.218;2022-10-23T07:30:06;16.50;99.90
32694;DHT22;19084;44.716;10.218;2022-10-23T07:32:48;16.50;99.90
32694;DHT22;19084;44.716;10.218;2022-10-23T07:35:39;16.50;99.90
32694;DHT22;19084;44.716;10.218;2022-10-23T07:38:15;16.50;99.90
32694;DHT22;19084;44.716;10.218;2022-10-23T07:40:56;16.60;99.90
32694;DHT22;19084;44.716;10.218;2022-10-23T07:43:30;16.60;99.90
32694;DHT22;19084;44.716;10.218;2022-10-23T07:46:03;16.60;99.90
32694;DHT22;19084;44.716;10.218;2022-10-23T07:48:41;16.70;99.90
32694;DHT22;19084;44.716;10.218;2022-10-23T07:51:15;16.70;99.90
32694;DHT22;19084;44.716;10.218;2022-10-23T07:53:50;16.70;99.90
32694;DHT22;19084;44.716;10.218;2022-10-23T07:56:43;16.70;99.90
32694;DHT22;19084;44.716;10.218;2022-10-23T07:59:21;16.80;99.90
32694;DHT22;19084;44.716;10.218;2022-10-23T08:01:58;16.80;99.90
32694;DHT22;19084;44.716;10.218;2022-10-23T08:04:38;16.70;99.90
32694;DHT22;19084;44.716;10.218;2022-10-23T08:07:25;16.80;99.90
32694;DHT22;19084;44.716;10.218;2022-10-23T08:10:01;16.90;99.90
32694;DHT22;19084;44.716;10.218;2022-10-23T08:12:36;17.00;99.90
32694;DHT22;19084;44.716;10.218;2022-10-23T08:15:10;17.00;99.90
32694;DHT22;19084;44.716;10.218;2022-10-23T08:17:55;17.00;99.90
32694;DHT22;19084;44.716;10.218;2022-10-23T08:20:42;17.10;99.90
32694;DHT22;19084;44.716;10.218;2022-10-23T08:23:17;17.10;99.90
32694;DHT22;19084;44.716;10.218;2022-10-23T08:25:56;17.20;99.90
32694;DHT22;19084;44.716;10.218;2022-10-23T08:28:33;17.30;99.90
32694;DHT22;19084;44.716;10.218;2022-10-23T08:31:11;17.40;99.90
32694;DHT22;19084;44.716;10.218;2022-10-23T08:33:57;17.50;99.90
32694;DHT22;19084;44.716;10.218;2022-10-23T08:36:30;17.50;99.90
32694;DHT22;19084;44.716;10.218;2022-10-23T08:39:05;17.60;99.90
32694;DHT22;19084;44.716;10.218;2022-10-23T08:41:41;17.60;99.90
32694;DHT22;19084;44.716;10.218;2022-10-23T08:44:22;17.70;99.90
32694;DHT22;19084;44.716;10.218;2022-10-23T08:47:08;17.80;99.90
32694;DHT22;19084;44.716;10.218;2022-10-23T08:50:02;17.90;99.90
32694;DHT22;19084;44.716;10.218;2022-10-23T08:52:43;17.90;99.90
32694;DHT22;19084;44.716;10.218;2022-10-23T08:55:32;18.00;99.90
32694;DHT22;19084;44.716;10.218;2022-10-23T09:04:13;18.20;99.90
32694;DHT22;19084;44.716;10.218;2022-10-23T09:12:28;18.20;99.90
32694;DHT22;19084;44.716;10.218;2022-10-23T09:18:13;18.30;99.90
32694;DHT22;19084;44.716;10.218;2022-10-23T09:20:46;18.30;99.90
32694;DHT22;19084;44.716;10.218;2022-10-23T09:23:21;18.30;99.90
32694;DHT22;19084;44.716;10.218;2022-10-23T09:25:54;18.30;99.90
32694;DHT22;19084;44.716;10.218;2022-10-23T09:28:31;18.20;99.90
32694;DHT22;19084;44.716;10.218;2022-10-23T09:31:10;18.20;99.90
32694;DHT22;19084;44.716;10.218;2022-10-23T09:34:00;18.20;99.90
32694;DHT22;19084;44.716;10.218;2022-10-23T09:36:33;18.20;99.90
32694;DHT22;19084;44.716;10.218;2022-10-23T09:39:21;18.20;99.90
32694;DHT22;19084;44.716;10.218;2022-10-23T09:41:57;18.20;99.90
32694;DHT22;19084;44.716;10.218;2022-10-23T09:44:31;18.20;99.90
32694;DHT22;19084;44.716;10.218;2022-10-23T09:49:45;18.30;99.90
32694;DHT22;19084;44.716;10.218;2022-10-23T09:52:22;18.30;99.90
32694;DHT22;19084;44.716;10.218;2022-10-23T09:54:59;18.40;99.90
32694;DHT22;19084;44.716;10.218;2022-10-23T09:57:41;18.40;99.90
32694;DHT22;19084;44.716;10.218;2022-10-23T10:00:17;18.50;99.90
32694;DHT22;19084;44.716;10.218;2022-10-23T10:05:41;18.60;99.90
32694;DHT22;19084;44.716;10.218;2022-10-23T10:10:57;18.70;99.90
32694;DHT22;19084;44.716;10.218;2022-10-23T10:21:48;19.10;99.90
32694;DHT22;19084;44.716;10.218;2022-10-23T10:24:34;19.10;99.90
32694;DHT22;19084;44.716;10.218;2022-10-23T10:27:29;19.10;99.90
32694;DHT22;19084;44.716;10.218;2022-10-23T10:30:17;19.20;99.90
32694;DHT22;19084;44.716;10.218;2022-10-23T10:33:00;19.30;99.90
32694;DHT22;19084;44.716;10.218;2022-10-23T10:47:03;19.70;99.90
32694;DHT22;19084;44.716;10.218;2022-10-23T11:01:01;20.20;99.90
32694;DHT22;19084;44.716;10.218;2022-10-23T11:03:41;20.40;99.90
32694;DHT22;19084;44.716;10.218;2022-10-23T11:06:19;20.50;99.90
32694;DHT22;19084;44.716;10.218;2022-10-23T11:08:53;20.50;99.90
32694;DHT22;19084;44.716;10.218;2022-10-23T11:11:47;20.50;99.90
32694;DHT22;19084;44.716;10.218;2022-10-23T11:14:22;20.50;99.90
32694;DHT22;19084;44.716;10.218;2022-10-23T11:17:16;20.40;99.90
32694;DHT22;19084;44.716;10.218;2022-10-23T11:20:02;20.50;99.90
32694;DHT22;19084;44.716;10.218;2022-10-23T11:22:57;20.50;99.90
32694;DHT22;19084;44.716;10.218;2022-10-23T11:28:44;20.50;99.90
32694;DHT22;19084;44.716;10.218;2022-10-23T11:34:14;20.70;99.90
32694;DHT22;19084;44.716;10.218;2022-10-23T11:36:54;20.70;99.90
32694;DHT22;19084;44.716;10.218;2022-10-23T11:39:30;20.70;99.90
32694;DHT22;19084;44.716;10.218;2022-10-23T11:44:47;20.60;99.90
32694;DHT22;19084;44.716;10.218;2022-10-23T11:50:23;20.60;99.90
32694;DHT22;19084;44.716;10.218;2022-10-23T11:53:03;20.60;99.90
32694;DHT22;19084;44.716;10.218;2022-10-23T11:56:00;20.60;99.90
32694;DHT22;19084;44.716;10.218;2022-10-23T11:58:51;20.70;99.90
32694;DHT22;19084;44.716;10.218;2022-10-23T12:04:20;20.70;99.90
32694;DHT22;19084;44.716;10.218;2022-10-23T12:06:56;20.70;99.90
32694;DHT22;19084;44.716;10.218;2022-10-23T12:14:45;20.70;99.90
32694;DHT22;19084;44.716;10.218;2022-10-23T12:34:17;20.70;99.90
32694;DHT22;19084;44.716;10.218;2022-10-23T12:39:43;20.70;99.90
32694;DHT22;19084;44.716;10.218;2022-10-23T12:42:25;20.60;99.90
32694;DHT22;19084;44.716;10.218;2022-10-23T12:45:00;20.60;99.90
32694;DHT22;19084;44.716;10.218;2022-10-23T12:47:33;20.60;99.90
32694;DHT22;19084;44.716;10.218;2022-10-23T12:50:24;20.60;99.90
32694;DHT22;19084;44.716;10.218;2022-10-23T12:52:59;20.60;99.90
32694;DHT22;19084;44.716;10.218;2022-10-23T12:55:58;20.60;99.90
32694;DHT22;19084;44.716;10.218;2022-10-23T12:58:36;20.50;99.90
32694;DHT22;19084;44.716;10.218;2022-10-23T13:01:22;20.50;99.90
32694;DHT22;19084;44.716;10.218;2022-10-23T13:04:07;20.50;99.90
32694;DHT22;19084;44.716;10.218;2022-10-23T13:06:43;20.50;99.90
32694;DHT22;19084;44.716;10.218;2022-10-23T13:12:33;20.50;99.90
32694;DHT22;19084;44.716;10.218;2022-10-23T13:17:42;20.50;99.90
32694;DHT22;19084;44.716;10.218;2022-10-23T13:26:02;20.80;99.90
32694;DHT22;19084;44.716;10.218;2022-10-23T13:28:44;20.90;99.90
32694;DHT22;19084;44.716;10.218;2022-10-23T13:31:23;21.00;99.90
32694;DHT22;19084;44.716;10.218;2022-10-23T13:36:36;21.10;99.90
32694;DHT22;19084;44.716;10.218;2022-10-23T13:39:13;21.10;99.90
32694;DHT22;19084;44.716;10.218;2022-10-23T13:41:45;21.10;99.90
32694;DHT22;19084;44.716;10.218;2022-10-23T13:44:22;21.20;99.90
32694;DHT22;19084;44.716;10.218;2022-10-23T13:46:56;21.20;99.90
32694;DHT22;19084;44.716;10.218;2022-10-23T13:49:28;21.20;99.90
32694;DHT22;19084;44.716;10.218;2022-10-23T13:52:01;21.20;99.90
32694;DHT22;19084;44.716;10.218;2022-10-23T13:54:34;21.10;99.90
32694;DHT22;19084;44.716;10.218;2022-10-23T13:57:13;21.10;99.90
32694;DHT22;19084;44.716;10.218;2022-10-23T13:59:48;21.10;99.90
32694;DHT22;19084;44.716;10.218;2022-10-23T14:02:22;21.20;99.90
32694;DHT22;19084;44.716;10.218;2022-10-23T14:04:56;21.20;99.90
32694;DHT22;19084;44.716;10.218;2022-10-23T14:07:28;21.20;99.90
32694;DHT22;19084;44.716;10.218;2022-10-23T14:10:04;21.20;99.90
32694;DHT22;19084;44.716;10.218;2022-10-23T14:12:39;21.20;99.90
32694;DHT22;19084;44.716;10.218;2022-10-23T14:15:13;21.20;99.90
32694;DHT22;19084;44.716;10.218;2022-10-23T14:17:45;21.20;99.90
32694;DHT22;19084;44.716;10.218;2022-10-23T14:20:18;21.10;99.90
32694;DHT22;19084;44.716;10.218;2022-10-23T14:22:54;21.20;99.90
32694;DHT22;19084;44.716;10.218;2022-10-23T14:25:27;21.20;99.90
32694;DHT22;19084;44.716;10.218;2022-10-23T14:28:00;21.30;99.90
32694;DHT22;19084;44.716;10.218;2022-10-23T14:30:35;21.20;99.90
32694;DHT22;19084;44.716;10.218;2022-10-23T14:33:08;21.20;99.90
32694;DHT22;19084;44.716;10.218;2022-10-23T14:35:41;21.20;99.90
32694;DHT22;19084;44.716;10.218;2022-10-23T14:38:14;21.20;99.90
32694;DHT22;19084;44.716;10.218;2022-10-23T14:40:47;21.20;99.90
32694;DHT22;19084;44.716;10.218;2022-10-23T14:43:21;21.20;99.90
32694;DHT22;19084;44.716;10.218;2022-10-23T14:45:55;21.20;99.90
32694;DHT22;19084;44.716;10.218;2022-10-23T14:48:27;21.20;99.90
32694;DHT22;19084;44.716;10.218;2022-10-23T14:51:00;21.10;99.90
32694;DHT22;19084;44.716;10.218;2022-10-23T14:53:33;21.00;99.90
32694;DHT22;19084;44.716;10.218;2022-10-23T14:56:06;21.00;99.90
32694;DHT22;19084;44.716;10.218;2022-10-23T14:58:40;21.00;99.90
32694;DHT22;19084;44.716;10.218;2022-10-23T15:01:14;21.00;99.90
32694;DHT22;19084;44.716;10.218;2022-10-23T15:03:47;20.90;99.90
32694;DHT22;19084;44.716;10.218;2022-10-23T15:06:26;20.90;99.90
32694;DHT22;19084;44.716;10.218;2022-10-23T15:08:59;20.80;99.90
32694;DHT22;19084;44.716;10.218;2022-10-23T15:11:32;20.70;99.90
32694;DHT22;19084;44.716;10.218;2022-10-23T15:14:05;20.70;99.90
32694;DHT22;19084;44.716;10.218;2022-10-23T15:16:39;20.70;99.90
32694;DHT22;19084;44.716;10.218;2022-10-23T15:19:13;20.70;99.90
32694;DHT22;19084;44.716;10.218;2022-10-23T15:21:50;20.70;99.90
32694;DHT22;19084;44.716;10.218;2022-10-23T15:24:23;20.70;99.90
32694;DHT22;19084;44.716;10.218;2022-10-23T15:26:57;20.70;99.90
32694;DHT22;19084;44.716;10.218;2022-10-23T15:29:31;20.60;99.90
32694;DHT22;19084;44.716;10.218;2022-10-23T15:32:05;20.60;99.90
32694;DHT22;19084;44.716;10.218;2022-10-23T15:34:39;20.60;99.90
32694;DHT22;19084;44.716;10.218;2022-10-23T15:37:14;20.60;99.90
32694;DHT22;19084;44.716;10.218;2022-10-23T15:39:47;20.50;99.90
32694;DHT22;19084;44.716;10.218;2022-10-23T15:42:19;20.50;99.90
32694;DHT22;19084;44.716;10.218;2022-10-23T15:44:52;20.50;99.90
32694;DHT22;19084;44.716;10.218;2022-10-23T15:47:25;20.50;99.90
32694;DHT22;19084;44.716;10.218;2022-10-23T15:49:58;20.40;99.90
32694;DHT22;19084;44.716;10.218;2022-10-23T15:52:31;20.40;99.90
32694;DHT22;19084;44.716;10.218;2022-10-23T15:55:03;20.30;99.90
32694;DHT22;19084;44.716;10.218;2022-10-23T15:57:37;20.20;99.90
32694;DHT22;19084;44.716;10.218;2022-10-23T16:00:13;20.20;99.90
32694;DHT22;19084;44.716;10.218;2022-10-23T16:02:50;20.10;99.90
32694;DHT22;19084;44.716;10.218;2022-10-23T16:05:24;20.00;99.90
32694;DHT22;19084;44.716;10.218;2022-10-23T16:07:56;20.00;99.90
32694;DHT22;19084;44.716;10.218;2022-10-23T16:10:29;20.00;99.90
32694;DHT22;19084;44.716;10.218;2022-10-23T16:13:02;19.90;99.90
32694;DHT22;19084;44.716;10.218;2022-10-23T16:15:35;19.90;99.90
32694;DHT22;19084;44.716;10.218;2022-10-23T16:18:09;19.80;99.90
32694;DHT22;19084;44.716;10.218;2022-10-23T16:20:42;19.80;99.90
32694;DHT22;19084;44.716;10.218;2022-10-23T16:23:15;19.70;99.90
32694;DHT22;19084;44.716;10.218;2022-10-23T16:25:47;19.60;99.90
32694;DHT22;19084;44.716;10.218;2022-10-23T16:28:21;19.60;99.90
32694;DHT22;19084;44.716;10.218;2022-10-23T16:30:54;19.50;99.90
32694;DHT22;19084;44.716;10.218;2022-10-23T16:33:26;19.40;99.90
32694;DHT22;19084;44.716;10.218;2022-10-23T16:36:04;19.40;99.90
32694;DHT22;19084;44.716;10.218;2022-10-23T16:38:57;19.30;99.90
32694;DHT22;19084;44.716;10.218;2022-10-23T16:41:50;19.30;99.90
32694;DHT22;19084;44.716;10.218;2022-10-23T16:44:23;19.30;99.90
32694;DHT22;19084;44.716;10.218;2022-10-23T16:47:01;19.20;99.90
32694;DHT22;19084;44.716;10.218;2022-10-23T16:49:35;19.20;99.90
32694;DHT22;19084;44.716;10.218;2022-10-23T16:52:07;19.10;99.90
32694;DHT22;19084;44.716;10.218;2022-10-23T16:54:42;19.00;99.90
32694;DHT22;19084;44.716;10.218;2022-10-23T16:57:14;19.00;99.90
32694;DHT22;19084;44.716;10.218;2022-10-23T16:59:49;18.90;99.90
32694;DHT22;19084;44.716;10.218;2022-10-23T17:02:22;18.80;99.90
32694;DHT22;19084;44.716;10.218;2022-10-23T17:04:55;18.80;99.90
32694;DHT22;19084;44.716;10.218;2022-10-23T17:07:28;18.80;99.90
32694;DHT22;19084;44.716;10.218;2022-10-23T17:10:02;18.70;99.90
32694;DHT22;19084;44.716;10.218;2022-10-23T17:12:35;18.70;99.90
32694;DHT22;19084;44.716;10.218;2022-10-23T17:15:09;18.70;99.90
32694;DHT22;19084;44.716;10.218;2022-10-23T17:17:41;18.70;99.90
32694;DHT22;19084;44.716;10.218;2022-10-23T17:20:14;18.60;99.90
32694;DHT22;19084;44.716;10.218;2022-10-23T17:22:47;18.60;99.90
32694;DHT22;19084;44.716;10.218;2022-10-23T17:25:20;18.60;99.90
32694;DHT22;19084;44.716;10.218;2022-10-23T17:27:53;18.60;99.90
32694;DHT22;19084;44.716;10.218;2022-10-23T17:30:25;18.60;99.90
32694;DHT22;19084;44.716;10.218;2022-10-23T17:32:58;18.60;99.90
32694;DHT22;19084;44.716;10.218;2022-10-23T17:35:33;18.50;99.90
32694;DHT22;19084;44.716;10.218;2022-10-23T17:38:05;18.50;99.90
32694;DHT22;19084;44.716;10.218;2022-10-23T17:40:39;18.40;99.90
32694;DHT22;19084;44.716;10.218;2022-10-23T17:43:13;18.40;99.90
32694;DHT22;19084;44.716;10.218;2022-10-23T17:45:46;18.40;99.90
32694;DHT22;19084;44.716;10.218;2022-10-23T17:48:19;18.30;99.90
32694;DHT22;19084;44.716;10.218;2022-10-23T17:51:09;18.30;99.90
32694;DHT22;19084;44.716;10.218;2022-10-23T17:53:44;18.30;99.90
32694;DHT22;19084;44.716;10.218;2022-10-23T17:56:20;18.30;99.90
32694;DHT22;19084;44.716;10.218;2022-10-23T17:58:58;18.20;99.90
32694;DHT22;19084;44.716;10.218;2022-10-23T18:01:32;18.20;99.90
32694;DHT22;19084;44.716;10.218;2022-10-23T18:04:06;18.20;99.90
32694;DHT22;19084;44.716;10.218;2022-10-23T18:06:44;18.20;99.90
32694;DHT22;19084;44.716;10.218;2022-10-23T18:09:18;18.20;99.90
32694;DHT22;19084;44.716;10.218;2022-10-23T18:11:51;18.20;99.90
32694;DHT22;19084;44.716;10.218;2022-10-23T18:14:24;18.10;99.90
32694;DHT22;19084;44.716;10.218;2022-10-23T18:17:00;18.10;99.90
32694;DHT22;19084;44.716;10.218;2022-10-23T18:19:33;19.10;99.90
32694;DHT22;19084;44.716;10.218;2022-10-23T18:22:05;18.10;99.90
32694;DHT22;19084;44.716;10.218;2022-10-23T18:24:38;18.00;99.90
32694;DHT22;19084;44.716;10.218;2022-10-23T18:27:11;18.00;99.90
32694;DHT22;19084;44.716;10.218;2022-10-23T18:29:43;18.00;99.90
32694;DHT22;19084;44.716;10.218;2022-10-23T18:32:16;17.90;99.90
32694;DHT22;19084;44.716;10.218;2022-10-23T18:34:49;18.00;99.90